Elliston, Virginia
Current Conditions -  °F | °C
As of 9:55 PM on Sunday 23 Nov 2014 (Local Time) from KBCB Reporting Station
Heavy Rain Heavy Rain  
Wind Chill: 45°   Ceiling: 1100
Heat Index: 48°   Visibility: 7mi
Dew Point: 48°   Wind: 8mph
Humidity: 100%   Direction: 120°ESE
Pressure: 29.77"   Gusts: 17mph
Location:  37.22°N, 80.23°W
Report Text: KBCB 240255Z AUTO 12007G15KT 7SM +RA SCT007 BKN011 OVC015 09/09 A2977 RMK AO2 LTG DSNT SE AND S
Loading
Personal Weather Stations






























Interactive Weather Map New forecast layout! Learn more

10-Day Weather Forecast

Advertisements
Track Severe Weather on mobile